createdAt,value
2022-09-06T00:01:49.541Z,3.33
2022-09-06T00:04:57.973Z,3.00
2022-09-06T00:08:07.633Z,3.20
2022-09-06T00:11:18.612Z,2.90
2022-09-06T00:14:28.408Z,2.83
2022-09-06T00:17:37.018Z,3.00
2022-09-06T00:20:45.471Z,2.90
2022-09-06T00:23:54.327Z,3.33
2022-09-06T00:27:02.458Z,2.90
2022-09-06T00:30:14.317Z,2.67
2022-09-06T00:33:22.787Z,2.70
2022-09-06T00:36:31.541Z,2.83
2022-09-06T00:39:40.401Z,2.67
2022-09-06T00:42:49.342Z,3.30
2022-09-06T00:45:59.936Z,2.80
2022-09-06T00:49:17.188Z,2.43
2022-09-06T00:52:29.000Z,2.50
2022-09-06T00:55:37.741Z,2.70
2022-09-06T00:58:47.000Z,2.70
2022-09-06T01:01:57.061Z,2.50
2022-09-06T01:05:09.957Z,2.97
2022-09-06T01:08:39.719Z,3.10
2022-09-06T01:12:15.171Z,2.97
2022-09-06T01:15:40.963Z,2.43
2022-09-06T01:19:25.103Z,2.37
2022-09-06T01:23:16.980Z,2.93
2022-09-06T01:27:06.225Z,2.70
2022-09-06T01:30:20.500Z,2.50
2022-09-06T01:33:42.589Z,2.67
2022-09-06T01:37:09.946Z,2.43
2022-09-06T01:40:19.299Z,2.00
2022-09-06T01:43:36.535Z,2.57
2022-09-06T01:46:58.240Z,2.80
2022-09-06T01:50:39.346Z,2.40
2022-09-06T01:54:17.634Z,2.70
2022-09-06T01:57:51.747Z,3.00
2022-09-06T02:01:12.016Z,2.77
2022-09-06T02:04:29.502Z,3.17
2022-09-06T02:07:41.806Z,2.43
2022-09-06T02:10:58.000Z,2.43
2022-09-06T02:14:12.956Z,2.60
2022-09-06T02:17:28.115Z,2.83
2022-09-06T02:20:45.167Z,5.93
2022-09-06T02:23:57.189Z,7.77
2022-09-06T02:27:05.820Z,8.03
2022-09-06T02:30:14.959Z,6.30
2022-09-06T02:33:29.997Z,6.13
2022-09-06T02:36:40.073Z,4.70
2022-09-06T02:39:48.273Z,4.17
2022-09-06T02:42:56.526Z,4.50
2022-09-06T02:46:04.766Z,3.17
2022-09-06T02:49:12.932Z,3.50
2022-09-06T02:52:22.488Z,3.47
2022-09-06T02:55:30.725Z,3.23
2022-09-06T02:58:40.070Z,3.57
2022-09-06T03:01:48.337Z,7.37
2022-09-06T03:04:56.487Z,8.23
2022-09-06T03:08:06.485Z,9.10
2022-09-06T03:11:15.076Z,9.23
2022-09-06T03:14:23.222Z,7.80
2022-09-06T03:17:31.424Z,6.10
2022-09-06T03:20:39.700Z,4.10
2022-09-06T03:23:49.664Z,3.50
2022-09-06T03:26:58.129Z,3.10
2022-09-06T03:30:08.632Z,2.60
2022-09-06T03:33:17.539Z,2.90
2022-09-06T03:36:26.020Z,2.73
2022-09-06T03:39:35.786Z,2.73
2022-09-06T03:57:32.357Z,2.67
2022-09-06T04:00:40.570Z,2.83
2022-09-06T04:03:49.035Z,2.70
2022-09-06T04:06:57.353Z,2.60
2022-09-06T04:10:07.123Z,2.70
2022-09-06T04:13:17.331Z,2.97
2022-09-06T04:16:26.023Z,3.07
2022-09-06T04:19:37.158Z,2.90
2022-09-06T04:22:46.816Z,3.43
2022-09-06T04:25:58.871Z,2.63
2022-09-06T04:29:09.065Z,3.30
2022-09-06T04:32:17.239Z,3.13
2022-09-06T04:35:26.591Z,2.90
2022-09-06T04:38:40.827Z,2.83
2022-09-06T04:41:49.393Z,2.23
2022-09-06T04:44:59.321Z,2.57
2022-09-06T04:48:08.298Z,2.87
2022-09-06T04:51:17.547Z,3.30
2022-09-06T04:54:26.674Z,3.03
2022-09-06T04:57:35.227Z,3.27
2022-09-06T05:00:47.269Z,2.80
2022-09-06T05:03:57.074Z,2.57
2022-09-06T05:07:08.209Z,3.10
2022-09-06T05:10:16.429Z,2.67
2022-09-06T05:13:24.925Z,2.90
2022-09-06T05:16:34.968Z,3.33
2022-09-06T05:19:44.748Z,2.60
2022-09-06T05:22:56.373Z,3.10
2022-09-06T05:26:05.793Z,2.80
2022-09-06T05:29:15.094Z,2.93
2022-09-06T05:32:24.807Z,3.00
2022-09-06T05:35:33.713Z,3.07
2022-09-06T05:38:42.279Z,2.57
2022-09-06T05:41:55.246Z,3.10
2022-09-06T05:45:03.618Z,2.20
2022-09-06T05:48:13.515Z,2.80
2022-09-06T05:51:21.801Z,2.83
2022-09-06T05:54:30.249Z,2.40
2022-09-06T05:57:39.153Z,2.70
2022-09-06T06:00:47.979Z,3.00
2022-09-06T06:04:02.335Z,2.70
2022-09-06T06:07:10.804Z,2.60
2022-09-06T06:10:19.150Z,2.37
2022-09-06T06:13:29.770Z,1.77
2022-09-06T06:16:38.494Z,2.10
2022-09-06T06:19:48.222Z,2.10
2022-09-06T06:22:56.714Z,2.07
2022-09-06T06:26:05.462Z,2.20
2022-09-06T06:29:14.554Z,1.90
2022-09-06T06:32:22.946Z,1.73
2022-09-06T06:35:33.223Z,2.23
2022-09-06T06:38:45.882Z,2.00
2022-09-06T06:41:54.524Z,1.63
2022-09-06T06:45:09.560Z,1.97
2022-09-06T06:48:18.319Z,1.77
2022-09-06T06:51:30.793Z,2.10
2022-09-06T06:54:39.325Z,2.03
2022-09-06T06:57:47.519Z,1.80
2022-09-06T07:00:56.029Z,1.40
2022-09-06T07:04:05.316Z,1.70
2022-09-06T07:07:30.266Z,1.63
2022-09-06T07:14:16.007Z,1.00
2022-09-06T07:17:24.848Z,1.10
2022-09-06T07:30:43.392Z,1.10
2022-09-06T07:33:55.191Z,1.47
2022-09-06T07:37:04.660Z,1.40
2022-09-06T07:40:17.800Z,1.30
2022-09-06T07:43:27.594Z,1.20
2022-09-06T07:46:36.538Z,1.30
2022-09-06T07:53:24.680Z,1.73
2022-09-06T07:56:40.513Z,1.30
2022-09-06T07:59:49.041Z,1.40
2022-09-06T08:02:57.445Z,1.53
2022-09-06T08:09:15.040Z,1.37
2022-09-06T08:12:27.765Z,1.50
2022-09-06T08:15:36.650Z,1.60
2022-09-06T08:18:46.161Z,1.37
2022-09-06T08:21:56.442Z,1.50
2022-09-06T08:25:05.421Z,1.70
2022-09-06T08:28:16.138Z,1.43
2022-09-06T08:31:25.011Z,1.87
2022-09-06T08:34:33.892Z,1.90
2022-09-06T08:37:42.570Z,1.20
2022-09-06T08:40:52.484Z,1.30
2022-09-06T08:47:36.703Z,1.20
2022-09-06T08:51:06.877Z,1.07
2022-09-06T08:54:26.783Z,0.90
2022-09-06T08:57:56.417Z,1.00
2022-09-06T09:01:15.901Z,1.00
2022-09-06T09:04:29.788Z,0.90
2022-09-06T09:07:46.698Z,0.80
2022-09-06T09:11:01.985Z,0.70
2022-09-06T09:14:18.014Z,1.27
2022-09-06T09:17:32.808Z,1.00
2022-09-06T09:20:41.589Z,1.10
2022-09-06T09:23:55.453Z,1.00
2022-09-06T09:27:11.191Z,1.17
2022-09-06T09:33:50.696Z,0.90
2022-09-06T09:40:55.871Z,1.10
2022-09-06T09:44:10.497Z,1.37
2022-09-06T09:47:28.439Z,1.43
2022-09-06T09:50:38.020Z,1.30
2022-09-06T09:53:54.334Z,1.37
2022-09-06T09:57:04.477Z,1.47
2022-09-06T10:00:14.610Z,1.30
2022-09-06T10:03:34.654Z,1.30
2022-09-06T10:10:26.318Z,1.37
2022-09-06T10:13:36.630Z,1.10
2022-09-06T10:16:47.181Z,1.23
2022-09-06T10:19:56.766Z,1.10
2022-09-06T10:23:17.587Z,1.10
2022-09-06T10:26:38.584Z,1.10
2022-09-06T10:29:58.444Z,1.20
2022-09-06T10:33:17.578Z,0.90
2022-09-06T10:36:35.975Z,0.93
2022-09-06T10:39:56.860Z,0.80
2022-09-06T10:43:14.937Z,0.70
2022-09-06T10:46:29.407Z,0.70
2022-09-06T10:49:43.376Z,0.80
2022-09-06T10:53:07.979Z,0.67
2022-09-06T10:56:26.740Z,0.67
2022-09-06T10:59:41.947Z,0.80
2022-09-06T11:06:46.253Z,0.50
2022-09-06T11:10:04.167Z,0.67
2022-09-06T11:13:19.374Z,0.50
2022-09-06T11:16:39.534Z,0.60
2022-09-06T11:19:59.928Z,0.50
2022-09-06T11:23:44.967Z,0.73
2022-09-06T11:27:07.137Z,0.53
2022-09-06T11:30:20.215Z,0.60
2022-09-06T11:33:35.499Z,0.60
2022-09-06T11:36:50.857Z,0.50
2022-09-06T11:40:30.406Z,0.60
2022-09-06T11:43:49.772Z,0.60
2022-09-06T11:47:07.592Z,0.83
2022-09-06T11:51:03.493Z,1.03
2022-09-06T11:54:29.923Z,0.87
2022-09-06T11:57:43.246Z,0.90
2022-09-06T12:01:36.118Z,0.90
2022-09-06T12:05:18.787Z,0.93
2022-09-06T12:08:35.571Z,1.10
2022-09-06T12:11:45.794Z,0.80
2022-09-06T12:14:54.088Z,1.10
2022-09-06T12:18:02.489Z,1.10
2022-09-06T12:21:52.292Z,0.80
2022-09-06T12:25:03.544Z,0.90
2022-09-06T12:28:25.172Z,0.70
2022-09-06T12:31:40.333Z,1.10
2022-09-06T12:38:26.068Z,1.47
2022-09-06T12:41:43.462Z,0.90
2022-09-06T12:44:56.528Z,1.10
2022-09-06T12:48:09.641Z,1.10
2022-09-06T12:51:23.509Z,1.47
2022-09-06T12:54:33.666Z,1.00
2022-09-06T12:57:51.327Z,1.00
2022-09-06T13:01:10.799Z,1.00
2022-09-06T13:04:30.503Z,1.70
2022-09-06T13:07:46.126Z,1.30
2022-09-06T13:10:56.615Z,1.13
2022-09-06T13:14:14.694Z,1.10
2022-09-06T13:17:29.965Z,0.93
2022-09-06T13:20:38.652Z,1.50
2022-09-06T13:23:51.012Z,1.47
2022-09-06T13:27:00.889Z,1.10
2022-09-06T13:30:11.944Z,1.30
2022-09-06T13:33:25.708Z,1.10
2022-09-06T13:36:35.016Z,0.83
2022-09-06T13:39:44.912Z,1.20
2022-09-06T13:43:02.352Z,1.37
2022-09-06T13:46:12.587Z,1.17
2022-09-06T13:49:20.790Z,1.17
2022-09-06T13:52:29.310Z,1.30
2022-09-06T13:55:37.762Z,1.20
2022-09-06T13:58:47.641Z,1.10
2022-09-06T14:02:03.169Z,1.17
2022-09-06T14:05:12.148Z,1.60
2022-09-06T14:08:21.225Z,1.00
2022-09-06T14:11:29.945Z,0.83
2022-09-06T14:14:39.856Z,1.27
2022-09-06T14:17:48.579Z,1.40
2022-09-06T14:20:59.051Z,1.10
2022-09-06T14:24:08.664Z,1.00
2022-09-06T14:27:18.159Z,0.80
2022-09-06T14:30:27.740Z,1.30
2022-09-06T14:33:36.436Z,0.93
2022-09-06T14:36:44.968Z,1.23
2022-09-06T14:39:54.026Z,1.60
2022-09-06T14:43:03.297Z,1.33
2022-09-06T14:46:18.210Z,0.90
2022-09-06T14:49:26.812Z,1.23
2022-09-06T14:52:35.261Z,1.00
2022-09-06T14:55:43.621Z,1.00
2022-09-06T14:58:51.988Z,1.40
2022-09-06T15:02:01.919Z,1.00
2022-09-06T15:05:10.600Z,1.03
2022-09-06T15:08:19.317Z,1.00
2022-09-06T15:11:34.559Z,1.47
2022-09-06T15:14:43.360Z,1.10
2022-09-06T15:17:52.956Z,1.17
2022-09-06T15:21:10.312Z,0.90
2022-09-06T15:24:19.776Z,1.17
2022-09-06T15:27:29.006Z,0.83
2022-09-06T15:30:40.028Z,1.20
2022-09-06T15:33:51.927Z,0.70
2022-09-06T15:37:02.455Z,1.00
2022-09-06T15:40:11.850Z,1.30
2022-09-06T15:43:20.996Z,1.10
2022-09-06T15:46:49.956Z,1.33
2022-09-06T15:49:59.490Z,1.50
2022-09-06T15:53:08.941Z,1.07
2022-09-06T15:56:19.519Z,1.10
2022-09-06T15:59:28.014Z,1.23
2022-09-06T16:02:36.626Z,1.20
2022-09-06T16:09:17.541Z,1.33
2022-09-06T16:12:25.822Z,1.43
2022-09-06T16:15:34.789Z,1.10
2022-09-06T16:18:46.589Z,1.33
2022-09-06T16:21:56.108Z,1.10
2022-09-06T16:25:05.392Z,1.20
2022-09-06T16:28:13.890Z,1.27
2022-09-06T16:31:24.172Z,1.47
2022-09-06T16:34:34.485Z,1.23
2022-09-06T16:37:44.093Z,1.23
2022-09-06T16:40:52.488Z,1.30
2022-09-06T16:44:01.236Z,1.00
2022-09-06T16:47:12.552Z,1.00
2022-09-06T16:50:23.709Z,1.17
2022-09-06T16:53:34.209Z,1.40
2022-09-06T16:56:42.878Z,1.50
2022-09-06T16:59:51.447Z,1.27
2022-09-06T17:02:59.851Z,1.30
2022-09-06T17:06:09.523Z,1.20
2022-09-06T17:09:20.837Z,1.80
2022-09-06T17:12:30.778Z,2.00
2022-09-06T17:15:53.077Z,1.20
2022-09-06T17:19:02.937Z,1.77
2022-09-06T17:22:12.715Z,1.60
2022-09-06T17:25:22.728Z,1.37
2022-09-06T17:28:35.190Z,1.53
2022-09-06T17:31:43.727Z,1.70
2022-09-06T17:34:51.991Z,1.57
2022-09-06T17:38:00.212Z,1.50
2022-09-06T17:41:20.294Z,1.43
2022-09-06T17:44:29.021Z,1.47
2022-09-06T17:47:37.653Z,1.80
2022-09-06T17:50:46.292Z,2.50
2022-09-06T17:53:56.637Z,1.37
2022-09-06T17:57:06.325Z,1.30
2022-09-06T18:00:16.009Z,1.67
2022-09-06T18:03:24.408Z,1.50
2022-09-06T18:06:34.515Z,1.30
2022-09-06T18:09:42.977Z,0.90
2022-09-06T18:12:53.559Z,1.10
2022-09-06T18:16:03.591Z,1.10
2022-09-06T18:19:12.586Z,1.10
2022-09-06T18:22:20.876Z,0.90
2022-09-06T18:25:29.610Z,0.80
2022-09-06T18:28:39.611Z,0.80
2022-09-06T18:31:48.071Z,0.63
2022-09-06T18:34:56.478Z,0.80
2022-09-06T18:38:04.643Z,0.53
2022-09-06T18:41:29.709Z,0.80
2022-09-06T18:44:40.566Z,0.70
2022-09-06T18:47:49.277Z,0.80
2022-09-06T18:50:59.857Z,0.83
2022-09-06T18:54:09.119Z,0.70
2022-09-06T18:57:17.360Z,1.00
2022-09-06T19:00:29.157Z,0.70
2022-09-06T19:03:39.518Z,1.40
2022-09-06T19:06:47.955Z,0.87
2022-09-06T19:09:56.512Z,0.90
2022-09-06T19:13:04.852Z,0.70
2022-09-06T19:16:15.482Z,0.87
2022-09-06T19:19:24.432Z,0.70
2022-09-06T19:22:33.177Z,0.87
2022-09-06T19:25:41.336Z,1.20
2022-09-06T19:28:53.270Z,0.73
2022-09-06T19:32:03.571Z,1.03
2022-09-06T19:35:12.709Z,0.73
2022-09-06T19:38:21.233Z,0.77
2022-09-06T19:41:32.292Z,0.60
2022-09-06T19:44:40.522Z,0.63
2022-09-06T19:47:50.816Z,0.70
2022-09-06T19:51:02.703Z,0.73
2022-09-06T19:54:10.869Z,0.80
2022-09-06T19:57:19.170Z,0.93
2022-09-06T20:00:31.287Z,0.90
2022-09-06T20:03:43.293Z,1.03
2022-09-06T20:06:51.491Z,1.07
2022-09-06T20:09:59.932Z,0.83
2022-09-06T20:13:08.287Z,0.80
2022-09-06T20:16:20.411Z,0.87
2022-09-06T20:19:30.681Z,0.80
2022-09-06T20:22:39.024Z,0.80
2022-09-06T20:25:48.092Z,1.00
2022-09-06T20:28:58.011Z,0.93
2022-09-06T20:32:06.409Z,0.90
2022-09-06T20:35:17.019Z,0.90
2022-09-06T20:38:26.030Z,0.90
2022-09-06T20:41:35.250Z,0.70
2022-09-06T20:44:44.054Z,0.80
2022-09-06T20:47:56.216Z,0.80
2022-09-06T20:51:09.812Z,0.80
2022-09-06T20:54:18.113Z,0.87
2022-09-06T20:57:26.548Z,0.90
2022-09-06T21:00:34.991Z,0.70
2022-09-06T21:03:44.183Z,1.10
2022-09-06T21:06:54.171Z,0.93
2022-09-06T21:10:02.398Z,1.10
2022-09-06T21:13:11.378Z,1.13
2022-09-06T21:16:24.313Z,0.90
2022-09-06T21:19:36.606Z,1.10
2022-09-06T21:22:46.342Z,1.57
2022-09-06T21:25:56.929Z,1.00
2022-09-06T21:29:11.151Z,0.80
2022-09-06T21:32:19.833Z,1.30
2022-09-06T21:35:28.656Z,1.37
2022-09-06T21:38:43.956Z,1.03
2022-09-06T21:41:52.612Z,1.90
2022-09-06T21:45:00.785Z,1.30
2022-09-06T21:48:09.667Z,1.20
2022-09-06T21:51:27.426Z,1.03
2022-09-06T21:54:37.598Z,1.00
2022-09-06T21:57:48.649Z,1.17
2022-09-06T22:00:59.750Z,1.37
2022-09-06T22:04:09.820Z,1.50
2022-09-06T22:07:18.963Z,1.30
2022-09-06T22:10:28.896Z,1.33
2022-09-06T22:13:37.235Z,1.47
2022-09-06T22:16:45.569Z,1.40
2022-09-06T22:19:54.382Z,1.47
2022-09-06T22:23:03.706Z,1.37
2022-09-06T22:26:14.164Z,1.23
2022-09-06T22:29:22.361Z,1.40
2022-09-06T22:32:30.837Z,1.73
2022-09-06T22:35:38.952Z,1.47
2022-09-06T22:38:47.465Z,1.50
2022-09-06T22:42:00.745Z,1.80
2022-09-06T22:45:10.314Z,1.50
2022-09-06T22:48:18.911Z,2.10
2022-09-06T22:51:31.731Z,1.70
2022-09-06T22:54:40.629Z,1.47
2022-09-06T22:57:50.339Z,1.67
2022-09-06T23:01:06.911Z,1.90
2022-09-06T23:04:15.188Z,1.63
2022-09-06T23:07:23.443Z,1.60
2022-09-06T23:10:32.599Z,1.77
2022-09-06T23:13:44.214Z,1.57
2022-09-06T23:16:52.827Z,1.30
2022-09-06T23:20:01.455Z,1.57
2022-09-06T23:23:09.841Z,1.50
2022-09-06T23:26:22.271Z,1.50
2022-09-06T23:29:31.793Z,1.47
2022-09-06T23:32:40.415Z,1.60
2022-09-06T23:35:49.080Z,2.17
2022-09-06T23:38:58.205Z,1.73
2022-09-06T23:42:06.546Z,1.97
2022-09-06T23:45:16.248Z,1.90
2022-09-06T23:48:24.913Z,2.00
2022-09-06T23:51:33.649Z,1.87
2022-09-06T23:54:41.776Z,1.63
2022-09-06T23:57:50.088Z,1.97
